M/V Humpback — WCY3381 — position and weather

sailwx.info

Track history (hours):
 
Tides and Currents Weather Stations Pressure Air Temp Water Temp Dewpoint Dewpoint Depression Visibility Wind Speed Wind Dir Waves Ship Positions

M/V Humpback

Owner: R W MILLER ENTERPRISES INC, FRIDAY HARBOR, WA. More information available from US FCC via Universal Licensing System and Coast Guard Vessel Documentation Center.

Last reported at 2015-Jan-26 19:59 UTC. Time now 2015-Jan-27 01:12 UTC.
Position N 48°37' W 123°09'.

Length 16 m.

Type: Passenger vessel. MMSI: 367350790.

Date/timePositionNaut miles runAvg speedWind from/ knotsBaromVisibWave heightAir tempDewpointWater temp
2015-Jan-26 19:59N 48°37' W 123°09'0 0.0
2015-Jan-26 18:29N 48°37' W 123°09'0 0.0
2015-Jan-26 17:29N 48°37' W 123°09'0 0.0
2015-Jan-26 11:38N 48°37' W 123°09'0 0.0
2015-Jan-26 11:08N 48°37' W 123°09'0 0.0
2015-Jan-26 10:23N 48°37' W 123°09'0 0.0
2015-Jan-26 09:23N 48°37' W 123°09'0 0.0
2015-Jan-24 15:23N 48°37' W 123°09'0 0.0
2015-Jan-24 13:23N 48°37' W 123°09'0 0.0
2015-Jan-24 11:29N 48°37' W 123°09'0 0.0
2015-Jan-24 09:11N 48°37' W 123°09'0 0.0
2015-Jan-24 07:18N 48°37' W 123°09'0 0.0
2015-Jan-23 23:17N 48°37' W 123°09'0 0.0
2015-Jan-23 22:17N 48°37' W 123°09'0 0.0
2015-Jan-23 22:17N 48°37' W 123°09'0 0.3
2015-Jan-23 21:15N 48°37' W 123°10'0 0.1
2015-Jan-23 20:29N 48°37' W 123°10'0 0.0
2015-Jan-23 09:58N 48°37' W 123°09'0 0.0
2015-Jan-23 01:13N 48°37' W 123°09'0 0.0
2015-Jan-22 22:52N 48°36' W 123°09'4 2.5
2015-Jan-22 21:22N 48°40' W 123°10'4 3.8
2015-Jan-22 20:27N 48°37' W 123°09'0 0.0
2015-Jan-22 13:50N 48°37' W 123°09'0 0.0
2015-Jan-22 07:23N 48°37' W 123°09'0 0.0
2015-Jan-22 03:23N 48°37' W 123°09'0 0.0
2015-Jan-22 02:56N 48°37' W 123°09'0 0.0
2015-Jan-21 22:20N 48°37' W 123°09'0 0.0
2015-Jan-21 12:49N 48°37' W 123°09'0 0.0
2015-Jan-21 08:52N 48°37' W 123°09'0 0.0
2015-Jan-21 08:22N 48°37' W 123°09'0 0.0
2015-Jan-21 07:22N 48°37' W 123°09'0 0.0
2015-Jan-21 06:52N 48°37' W 123°09'0 0.0
2015-Jan-21 05:22N 48°37' W 123°09'0 0.0
2015-Jan-21 02:25N 48°37' W 123°09'1 0.7
2015-Jan-21 00:30N 48°38' W 123°10'2 1.8
2015-Jan-20 23:28N 48°40' W 123°11'3 7.7
2015-Jan-20 23:08N 48°37' W 123°09'3 3.7
2015-Jan-20 22:17N 48°40' W 123°11'1 1.8
2015-Jan-20 21:47N 48°39' W 123°10'2 3.2
2015-Jan-20 21:06N 48°37' W 123°10'1 0.4
2015-Jan-20 19:31N 48°36' W 123°09'1 0.9
2015-Jan-20 18:11N 48°38' W 123°10'1 0.7
2015-Jan-20 16:30N 48°37' W 123°09'0 0.0
2015-Jan-20 13:30N 48°37' W 123°09'0 0.0
2015-Jan-20 11:54N 48°37' W 123°09'0 0.0
2015-Jan-20 10:07N 48°37' W 123°09'0 0.0
2015-Jan-20 09:33N 48°37' W 123°09'0 0.0
2015-Jan-20 07:31N 48°37' W 123°09'0 0.0
2015-Jan-20 07:12N 48°37' W 123°09'0 0.0
2015-Jan-20 06:27N 48°37' W 123°09'0 0.0
2015-Jan-20 02:19N 48°37' W 123°09'0 0.0
2015-Jan-20 02:15N 48°37' W 123°09'0 0.0
2015-Jan-20 01:30N 48°37' W 123°09'0 0.0
2015-Jan-19 22:19N 48°37' W 123°09'0 0.0
2015-Jan-19 21:15N 48°37' W 123°09'0 0.0
2015-Jan-19 18:22N 48°37' W 123°09'0 0.0
2015-Jan-19 16:48N 48°37' W 123°09'0 0.0
2015-Jan-19 15:36N 48°37' W 123°09'0 0.0
2015-Jan-19 11:03N 48°37' W 123°09'0 0.0
2015-Jan-19 09:48N 48°37' W 123°09'0 0.0
2015-Jan-19 08:48N 48°37' W 123°09'0 0.0
2015-Jan-19 07:36N 48°37' W 123°09'0 0.0
2015-Jan-19 07:31N 48°37' W 123°09'0 0.0
2015-Jan-19 06:00N 48°37' W 123°09'0 0.0
2015-Jan-19 05:00N 48°37' W 123°09'0 0.0
2015-Jan-19 03:00N 48°37' W 123°09'0 0.0
2015-Jan-19 01:30N 48°37' W 123°09'0 0.0
2015-Jan-18 21:28N 48°37' W 123°09'0 0.0
2015-Jan-18 19:54N 48°37' W 123°09'0 0.0
2015-Jan-18 18:54N 48°37' W 123°09'0 0.0
2015-Jan-18 16:33N 48°37' W 123°09'0 0.0
2015-Jan-18 07:19N 48°37' W 123°09'0 0.0
2015-Jan-16 22:15N 48°37' W 123°09'  
Track history (hours):
 
Tides and Currents Weather Stations Pressure Air Temp Water Temp Dewpoint Dewpoint Depression Visibility Wind Speed Wind Dir Waves Ship Positions

M/V Humpback

Owner: R W MILLER ENTERPRISES INC, FRIDAY HARBOR, WA. More information available from US FCC via Universal Licensing System and Coast Guard Vessel Documentation Center.

Last reported at 2015-Jan-26 19:59 UTC. Time now 2015-Jan-27 01:12 UTC.
Position N 48°37' W 123°09'.

Length 16 m.

Type: Passenger vessel. MMSI: 367350790.

Date/timePositionNaut miles runAvg speedWind from/ knotsBaromVisibWave heightAir tempDewpointWater temp
2015-Jan-26 19:59N 48°37' W 123°09'0 0.0
2015-Jan-26 18:29N 48°37' W 123°09'0 0.0
2015-Jan-26 17:29N 48°37' W 123°09'0 0.0
2015-Jan-26 11:38N 48°37' W 123°09'0 0.0
2015-Jan-26 11:08N 48°37' W 123°09'0 0.0
2015-Jan-26 10:23N 48°37' W 123°09'0 0.0
2015-Jan-26 09:23N 48°37' W 123°09'0 0.0
2015-Jan-24 15:23N 48°37' W 123°09'0 0.0
2015-Jan-24 13:23N 48°37' W 123°09'0 0.0
2015-Jan-24 11:29N 48°37' W 123°09'0 0.0
2015-Jan-24 09:11N 48°37' W 123°09'0 0.0
2015-Jan-24 07:18N 48°37' W 123°09'0 0.0
2015-Jan-23 23:17N 48°37' W 123°09'0 0.0
2015-Jan-23 22:17N 48°37' W 123°09'0 0.0
2015-Jan-23 22:17N 48°37' W 123°09'0 0.3
2015-Jan-23 21:15N 48°37' W 123°10'0 0.1
2015-Jan-23 20:29N 48°37' W 123°10'0 0.0
2015-Jan-23 09:58N 48°37' W 123°09'0 0.0
2015-Jan-23 01:13N 48°37' W 123°09'0 0.0
2015-Jan-22 22:52N 48°36' W 123°09'4 2.5
2015-Jan-22 21:22N 48°40' W 123°10'4 3.8
2015-Jan-22 20:27N 48°37' W 123°09'0 0.0
2015-Jan-22 13:50N 48°37' W 123°09'0 0.0
2015-Jan-22 07:23N 48°37' W 123°09'0 0.0
2015-Jan-22 03:23N 48°37' W 123°09'0 0.0
2015-Jan-22 02:56N 48°37' W 123°09'0 0.0
2015-Jan-21 22:20N 48°37' W 123°09'0 0.0
2015-Jan-21 12:49N 48°37' W 123°09'0 0.0
2015-Jan-21 08:52N 48°37' W 123°09'0 0.0
2015-Jan-21 08:22N 48°37' W 123°09'0 0.0
2015-Jan-21 07:22N 48°37' W 123°09'0 0.0
2015-Jan-21 06:52N 48°37' W 123°09'0 0.0
2015-Jan-21 05:22N 48°37' W 123°09'0 0.0
2015-Jan-21 02:25N 48°37' W 123°09'1 0.7
2015-Jan-21 00:30N 48°38' W 123°10'2 1.8
2015-Jan-20 23:28N 48°40' W 123°11'3 7.7
2015-Jan-20 23:08N 48°37' W 123°09'3 3.7
2015-Jan-20 22:17N 48°40' W 123°11'1 1.8
2015-Jan-20 21:47N 48°39' W 123°10'2 3.2
2015-Jan-20 21:06N 48°37' W 123°10'1 0.4
2015-Jan-20 19:31N 48°36' W 123°09'1 0.9
2015-Jan-20 18:11N 48°38' W 123°10'1 0.7
2015-Jan-20 16:30N 48°37' W 123°09'0 0.0
2015-Jan-20 13:30N 48°37' W 123°09'0 0.0
2015-Jan-20 11:54N 48°37' W 123°09'0 0.0
2015-Jan-20 10:07N 48°37' W 123°09'0 0.0
2015-Jan-20 09:33N 48°37' W 123°09'0 0.0
2015-Jan-20 07:31N 48°37' W 123°09'0 0.0
2015-Jan-20 07:12N 48°37' W 123°09'0 0.0
2015-Jan-20 06:27N 48°37' W 123°09'0 0.0
2015-Jan-20 02:19N 48°37' W 123°09'0 0.0
2015-Jan-20 02:15N 48°37' W 123°09'0 0.0
2015-Jan-20 01:30N 48°37' W 123°09'0 0.0
2015-Jan-19 22:19N 48°37' W 123°09'0 0.0
2015-Jan-19 21:15N 48°37' W 123°09'0 0.0
2015-Jan-19 18:22N 48°37' W 123°09'0 0.0
2015-Jan-19 16:48N 48°37' W 123°09'0 0.0
2015-Jan-19 15:36N 48°37' W 123°09'0 0.0
2015-Jan-19 11:03N 48°37' W 123°09'0 0.0
2015-Jan-19 09:48N 48°37' W 123°09'0 0.0
2015-Jan-19 08:48N 48°37' W 123°09'0 0.0
2015-Jan-19 07:36N 48°37' W 123°09'0 0.0
2015-Jan-19 07:31N 48°37' W 123°09'0 0.0
2015-Jan-19 06:00N 48°37' W 123°09'0 0.0
2015-Jan-19 05:00N 48°37' W 123°09'0 0.0
2015-Jan-19 03:00N 48°37' W 123°09'0 0.0
2015-Jan-19 01:30N 48°37' W 123°09'0 0.0
2015-Jan-18 21:28N 48°37' W 123°09'0 0.0
2015-Jan-18 19:54N 48°37' W 123°09'0 0.0
2015-Jan-18 18:54N 48°37' W 123°09'0 0.0
2015-Jan-18 16:33N 48°37' W 123°09'0 0.0
2015-Jan-18 07:19N 48°37' W 123°09'0 0.0
2015-Jan-16 22:15N 48°37' W 123°09'  

Dump ship's entire track history